Terminal Aerodrome Forecast
Issued by NWS

Current Version | Previous Version | Text Only | Print | Product List | Glossary On
Versions: 1 2 3 4 5 6 7 8 9 10 11 12 13 14 15
000
FTUS41 KBTV 281136
TAFRUT
TAF
KRUT 281136Z 2812/2912 13005KT P6SM BKN030
      TEMPO 2812/2815 SCT030
     FM281500 31005KT P6SM FEW035
     FM290000 13007KT P6SM SKC
      AMD LTD TO CLD VIS AND WIND=

USA.gov is the U.S. government's official web portal to all federal, state and local government web resources and services.